Ringgold, Nebraska
Current Conditions -  °F | °C
As of 10:53 AM on Thursday 23 Oct 2014 (Local Time) from KLBF Reporting Station
Clear Clear  
Wind Chill: 52°   Ceiling: Unl
Heat Index: 52°   Visibility: 10mi
Dew Point: 43°   Wind: 0mph
Humidity: 71%   Direction: NA
Pressure: 30.11"   Gusts: NA
Location:  41.5681°N, 101.06°W
Report Text: KLBF 231553Z AUTO 00000KT 10SM CLR 11/06 A3011 RMK AO2 SLP198 T01110061
Loading
Personal Weather Stations






























Interactive Weather Map New forecast layout! Learn more

10-Day Weather Forecast

Advertisements
Track Severe Weather on mobile